MMPB/PBC METAR and TAF weather

Enter ICAO airport designator
Station Type Date Time Source
MMPB METAR 2019/04/20 21:43 UTC NOAA

MMPB 202143Z 19019KT 9SM FEW025 26/00 A3027 RMK 8/100 HZY


Station Type Date Time Source
MMPB Decoded METAR 2019/04/20 21:43 UTC NOAA

Puebla, Pue., Mexico (MMPB) 19-03N 098-10W
Apr 20, 2019 - 05:43 PM EDT / 2019.04.20 2143 UTC
Wind: from the S (190 degrees) at 22 MPH (19 KT):0
Visibility: 9 mile(s):0
Sky conditions: mostly clear
Temperature: 78 F (26 C)
Dew Point: 32 F (0 C)
Relative Humidity: 18%
Pressure (altimeter): 30.27 in. Hg (1025 hPa)
ob: MMPB 202143Z 19019KT 9SM FEW025 26/00 A3027 RMK 8/100 HZY
cycle: 21

Station Type Date Time Source
MMPB TAF 2019/04/20 18:25 UTC NOAA

TAF MMPB 201621Z 2018/2118 19012KT P6SM SCT020 BKN080 OVC250
FM210600 34005KT P6SM BKN080
FM211700 17012KT P6SM SCT025 BKN080

Example: see airport list